Granby, Colorado
Current Conditions -  °F | °C
As of 2:34 AM on Sunday 23 Nov 2014 (Local Time) from K0CO Reporting Station
Light Snow Light Snow  
Wind Chill: -10°   Ceiling: 200
Heat Index: 10°   Visibility: 0.5mi
Dew Point:   Wind: 25mph
Humidity: 85%   Direction: 320°NW
Pressure: 29.7"   Gusts: 36mph
Location:  40.09°N, 105.94°W
Report Text: K0CO 230934Z AUTO 32022G31KT 1/2SM -SN OVC002 M12/M14 A2970 RMK AO2
Loading
Personal Weather Stations






























Interactive Weather Map New forecast layout! Learn more

10-Day Weather Forecast

Advertisements
Track Severe Weather on mobile